Brigham City, UT (84302)

8:15 AM MST on November 24, 2014 (GMT -0700)
Center of B.C. K7UV | Change Station
CLOSE
Current Station
Personal Weather Station
Location: Brigham City, UT
Elevation: 4411 ft
Nearby Weather Stations

Elev 4411 ft 41.51 °N, 112.02 °W | Updated 52 seconds ago

Mostly Cloudy
Mostly Cloudy
32.4 °F
Feels Like 32 °F
N
0.0
Wind Variable Wind from SE
Gusts 1.0 mph

Today
High -- | Low -- °F
--% Chance of Precip.
Yesterday
High -- | Low -- °F
Precip. -- in
7:27 AM 5:01 PM
Waxing Crescent, 5% visible
Pressure 30.25 in
Visibility 10.0 miles
Clouds Scattered Clouds 4700 ft
Scattered Clouds 5500 ft
Mostly Cloudy 9000 ft
Windchill 32 °F
Dew Point 22 °F
Humidity 64%
Rainfall 0.00 in
Snow Depth Not available.
UV 0 out of 12
Pollen .10 out of 12
Air Quality Not available.
Flu Activity Not available.
METAR KBMC 241410Z AUTO 33010G16KT 10SM SCT047 SCT055 BKN090 02/M05 A3025 RMK AO1 T00221055

More Conditions Fewer Conditions

Pressure 30.25 in
Visibility 10.0 miles
Clouds Scattered Clouds 4700 ft
Scattered Clouds 5500 ft
Mostly Cloudy 9000 ft
Windchill 32 °F
Dew Point 22 °F
Humidity 64%
Rainfall 0.00 in
Snow Depth Not available.
UV 0 out of 12
Pollen .10 out of 12
Air Quality Not available.
Flu Activity Not available.
METAR KBMC 241410Z AUTO 33010G16KT 10SM SCT047 SCT055 BKN090 02/M05 A3025 RMK AO1 T00221055

More Conditions Fewer Conditions

10-Day Weather Forecast

Almanac

Astronomy

Nov. 24, 2014 Rise Set
Actual Time
Civil Twilight
Nautical Twilight
Astronomical Twilight
Moon
Length of Visible Light
Length of Day
Tomorrow will be .
, % of the Moon is Illuminated

Today's Extremes

State Highs State Lows

Community

WunderPhotos

Upload Photos

1,773,360 photos uploaded!

WunderBlogs® & News

Nearby

Air Quality

  Air Quality AQ Index Pollutant
Not available.

Snow Depth

Station Depth Elevation

Earthquake Activity

City Distance Mag. Time & Date
Minimum magnitude displayed is 2.5.

Coastal Water Temperatures

Place Temperature

Nearby Weather Stations